Aviation Digital Data Service (ADDS)

Output produced by METARs form (1819 UTC 18 April 2019)
found at http://www.aviationweather.gov/metar/data/
 
METAR text: OEKM 181800Z 22008KT CAVOK 21/13 Q1025 NOSIG
Conditions at: OEKM (KHAMIS MUSHAIT A, SA) observed 1800 UTC 18 April 2019
Temperature: 21.0°C (70°F)
Dewpoint: 13.0°C (55°F) [RH = 60%]
Pressure (altimeter): 30.27 inches Hg (1025.0 mb)
Winds: from the SW (220 degrees) at 9 MPH (8 knots; 4.1 m/s)
Visibility: 6 or more miles (10+ km)
Ceiling: ceiling and visibility are OK
Clouds: unknown
Weather: no significant weather observed at this time

METAR text: OEKM 181700Z 22012KT CAVOK 22/13 Q1024 NOSIG
Conditions at: OEKM (KHAMIS MUSHAIT A, SA) observed 1700 UTC 18 April 2019
Temperature: 22.0°C (72°F)
Dewpoint: 13.0°C (55°F) [RH = 57%]
Pressure (altimeter): 30.24 inches Hg (1024.0 mb)
Winds: from the SW (220 degrees) at 14 MPH (12 knots; 6.2 m/s)
Visibility: 6 or more miles (10+ km)
Ceiling: ceiling and visibility are OK
Clouds: unknown
Weather: no significant weather observed at this time

METAR text: OEKM 181600Z 23010KT 9999 FEW022 23/11 Q1023 NOSIG
Conditions at: OEKM (KHAMIS MUSHAIT A, SA) observed 1600 UTC 18 April 2019
Temperature: 23.0°C (73°F)
Dewpoint: 11.0°C (52°F) [RH = 47%]
Pressure (altimeter): 30.21 inches Hg (1023.0 mb)
Winds: from the SW (230 degrees) at 12 MPH (10 knots; 5.1 m/s)
Visibility: 6 or more miles (10+ km)
Ceiling: at least 12,000 feet AGL
Clouds: few clouds at 2200 feet AGL
Weather: no significant weather observed at this time

METAR text: OEKM 181500Z 22012KT 9999 FEW022 24/10 Q1023 NOSIG
Conditions at: OEKM (KHAMIS MUSHAIT A, SA) observed 1500 UTC 18 April 2019
Temperature: 24.0°C (75°F)
Dewpoint: 10.0°C (50°F) [RH = 41%]
Pressure (altimeter): 30.21 inches Hg (1023.0 mb)
Winds: from the SW (220 degrees) at 14 MPH (12 knots; 6.2 m/s)
Visibility: 6 or more miles (10+ km)
Ceiling: at least 12,000 feet AGL
Clouds: few clouds at 2200 feet AGL
Weather: no significant weather observed at this time

METAR text: OEKM 181400Z 24008KT 9999 SCT022 25/11 Q1022 NOSIG
Conditions at: OEKM (KHAMIS MUSHAIT A, SA) observed 1400 UTC 18 April 2019
Temperature: 25.0°C (77°F)
Dewpoint: 11.0°C (52°F) [RH = 41%]
Pressure (altimeter): 30.18 inches Hg (1022.0 mb)
Winds: from the WSW (240 degrees) at 9 MPH (8 knots; 4.1 m/s)
Visibility: 6 or more miles (10+ km)
Ceiling: at least 12,000 feet AGL
Clouds: scattered clouds at 2200 feet AGL
Weather: no significant weather observed at this time

METAR text: OEKM 181300Z 26006KT 9999 SCT022 FEW025CB 26/11 Q1023 NOSIG
Conditions at: OEKM (KHAMIS MUSHAIT A, SA) observed 1300 UTC 18 April 2019
Temperature: 26.0°C (79°F)
Dewpoint: 11.0°C (52°F) [RH = 39%]
Pressure (altimeter): 30.21 inches Hg (1023.0 mb)
Winds: from the W (260 degrees) at 7 MPH (6 knots; 3.1 m/s)
Visibility: 6 or more miles (10+ km)
Ceiling: at least 12,000 feet AGL
Clouds: scattered clouds at 2200 feet AGL
few clouds at 2500 feet AGL
Weather: no significant weather observed at this time

METAR text: OEKM 181200Z 24010KT 9999 SCT022 FEW025CB 27/10 Q1023 NOSIG
Conditions at: OEKM (KHAMIS MUSHAIT A, SA) observed 1200 UTC 18 April 2019
Temperature: 27.0°C (81°F)
Dewpoint: 10.0°C (50°F) [RH = 34%]
Pressure (altimeter): 30.21 inches Hg (1023.0 mb)
Winds: from the WSW (240 degrees) at 12 MPH (10 knots; 5.1 m/s)
Visibility: 6 or more miles (10+ km)
Ceiling: at least 12,000 feet AGL
Clouds: scattered clouds at 2200 feet AGL
few clouds at 2500 feet AGL
Weather: no significant weather observed at this time

METAR text: OEKM 181100Z 21011KT 9999 SCT022 28/09 Q1023 NOSIG
Conditions at: OEKM (KHAMIS MUSHAIT A, SA) observed 1100 UTC 18 April 2019
Temperature: 28.0°C (82°F)
Dewpoint: 9.0°C (48°F) [RH = 30%]
Pressure (altimeter): 30.21 inches Hg (1023.0 mb)
Winds: from the SSW (210 degrees) at 13 MPH (11 knots; 5.7 m/s)
Visibility: 6 or more miles (10+ km)
Ceiling: at least 12,000 feet AGL
Clouds: scattered clouds at 2200 feet AGL
Weather: no significant weather observed at this time

METAR text: OEKM 181000Z 22015KT 9999 SCT022 28/07 Q1024 NOSIG
Conditions at: OEKM (KHAMIS MUSHAIT A, SA) observed 1000 UTC 18 April 2019
Temperature: 28.0°C (82°F)
Dewpoint: 7.0°C (45°F) [RH = 27%]
Pressure (altimeter): 30.24 inches Hg (1024.0 mb)
Winds: from the SW (220 degrees) at 17 MPH (15 knots; 7.7 m/s)
Visibility: 6 or more miles (10+ km)
Ceiling: at least 12,000 feet AGL
Clouds: scattered clouds at 2200 feet AGL
Weather: no significant weather observed at this time

METAR text: OEKM 180900Z 22008KT 9999 SCT022 27/05 Q1025 NOSIG
Conditions at: OEKM (KHAMIS MUSHAIT A, SA) observed 0900 UTC 18 April 2019
Temperature: 27.0°C (81°F)
Dewpoint: 5.0°C (41°F) [RH = 24%]
Pressure (altimeter): 30.27 inches Hg (1025.0 mb)
Winds: from the SW (220 degrees) at 9 MPH (8 knots; 4.1 m/s)
Visibility: 6 or more miles (10+ km)
Ceiling: at least 12,000 feet AGL
Clouds: scattered clouds at 2200 feet AGL
Weather: no significant weather observed at this time

METAR text: OEKM 180800Z 21010KT CAVOK 26/06 Q1025 NOSIG
Conditions at: OEKM (KHAMIS MUSHAIT A, SA) observed 0800 UTC 18 April 2019
Temperature: 26.0°C (79°F)
Dewpoint: 6.0°C (43°F) [RH = 28%]
Pressure (altimeter): 30.27 inches Hg (1025.0 mb)
Winds: from the SSW (210 degrees) at 12 MPH (10 knots; 5.1 m/s)
Visibility: 6 or more miles (10+ km)
Ceiling: ceiling and visibility are OK
Clouds: unknown
Weather: no significant weather observed at this time

METAR text: OEKM 180700Z 23008KT CAVOK 24/08 Q1026 NOSIG
Conditions at: OEKM (KHAMIS MUSHAIT A, SA) observed 0700 UTC 18 April 2019
Temperature: 24.0°C (75°F)
Dewpoint: 8.0°C (46°F) [RH = 36%]
Pressure (altimeter): 30.30 inches Hg (1026.0 mb)
Winds: from the SW (230 degrees) at 9 MPH (8 knots; 4.1 m/s)
Visibility: 6 or more miles (10+ km)
Ceiling: ceiling and visibility are OK
Clouds: unknown
Weather: no significant weather observed at this time

METAR text: OEKM 180600Z 23005KT CAVOK 23/09 Q1026 NOSIG
Conditions at: OEKM (KHAMIS MUSHAIT A, SA) observed 0600 UTC 18 April 2019
Temperature: 23.0°C (73°F)
Dewpoint: 9.0°C (48°F) [RH = 41%]
Pressure (altimeter): 30.30 inches Hg (1026.0 mb)
Winds: from the SW (230 degrees) at 6 MPH (5 knots; 2.6 m/s)
Visibility: 6 or more miles (10+ km)
Ceiling: ceiling and visibility are OK
Clouds: unknown
Weather: no significant weather observed at this time

METAR text: OEKM 180500Z 18007KT CAVOK 21/13 Q1025 NOSIG
Conditions at: OEKM (KHAMIS MUSHAIT A, SA) observed 0500 UTC 18 April 2019
Temperature: 21.0°C (70°F)
Dewpoint: 13.0°C (55°F) [RH = 60%]
Pressure (altimeter): 30.27 inches Hg (1025.0 mb)
Winds: from the S (180 degrees) at 8 MPH (7 knots; 3.6 m/s)
Visibility: 6 or more miles (10+ km)
Ceiling: ceiling and visibility are OK
Clouds: unknown
Weather: no significant weather observed at this time

METAR text: OEKM 180400Z 15006KT CAVOK 18/15 Q1025 NOSIG
Conditions at: OEKM (KHAMIS MUSHAIT A, SA) observed 0400 UTC 18 April 2019
Temperature: 18.0°C (64°F)
Dewpoint: 15.0°C (59°F) [RH = 83%]
Pressure (altimeter): 30.27 inches Hg (1025.0 mb)
Winds: from the SSE (150 degrees) at 7 MPH (6 knots; 3.1 m/s)
Visibility: 6 or more miles (10+ km)
Ceiling: ceiling and visibility are OK
Clouds: unknown
Weather: no significant weather observed at this time

METAR text: OEKM 180300Z 00000KT CAVOK 17/13 Q1024 NOSIG
Conditions at: OEKM (KHAMIS MUSHAIT A, SA) observed 0300 UTC 18 April 2019
Temperature: 17.0°C (63°F)
Dewpoint: 13.0°C (55°F) [RH = 77%]
Pressure (altimeter): 30.24 inches Hg (1024.0 mb)
Winds: calm
Visibility: 6 or more miles (10+ km)
Ceiling: ceiling and visibility are OK
Clouds: unknown
Weather: no significant weather observed at this time

METAR text: OEKM 180200Z 00000KT CAVOK 16/13 Q1024 NOSIG
Conditions at: OEKM (KHAMIS MUSHAIT A, SA) observed 0200 UTC 18 April 2019
Temperature: 16.0°C (61°F)
Dewpoint: 13.0°C (55°F) [RH = 82%]
Pressure (altimeter): 30.24 inches Hg (1024.0 mb)
Winds: calm
Visibility: 6 or more miles (10+ km)
Ceiling: ceiling and visibility are OK
Clouds: unknown
Weather: no significant weather observed at this time

METAR text: OEKM 180100Z 00000KT CAVOK 16/11 Q1023 NOSIG
Conditions at: OEKM (KHAMIS MUSHAIT A, SA) observed 0100 UTC 18 April 2019
Temperature: 16.0°C (61°F)
Dewpoint: 11.0°C (52°F) [RH = 72%]
Pressure (altimeter): 30.21 inches Hg (1023.0 mb)
Winds: calm
Visibility: 6 or more miles (10+ km)
Ceiling: ceiling and visibility are OK
Clouds: unknown
Weather: no significant weather observed at this time

METAR text: OEKM 180000Z 00000KT CAVOK 17/12 Q1023 NOSIG
Conditions at: OEKM (KHAMIS MUSHAIT A, SA) observed 0000 UTC 18 April 2019
Temperature: 17.0°C (63°F)
Dewpoint: 12.0°C (54°F) [RH = 72%]
Pressure (altimeter): 30.21 inches Hg (1023.0 mb)
Winds: calm
Visibility: 6 or more miles (10+ km)
Ceiling: ceiling and visibility are OK
Clouds: unknown
Weather: no significant weather observed at this time

METAR text: OEKM 172300Z 00000KT CAVOK 18/12 Q1023 NOSIG
Conditions at: OEKM (KHAMIS MUSHAIT A, SA) observed 2300 UTC 17 April 2019
Temperature: 18.0°C (64°F)
Dewpoint: 12.0°C (54°F) [RH = 68%]
Pressure (altimeter): 30.21 inches Hg (1023.0 mb)
Winds: calm
Visibility: 6 or more miles (10+ km)
Ceiling: ceiling and visibility are OK
Clouds: unknown
Weather: no significant weather observed at this time

METAR text: OEKM 172200Z 00000KT CAVOK 18/15 Q1024 NOSIG
Conditions at: OEKM (KHAMIS MUSHAIT A, SA) observed 2200 UTC 17 April 2019
Temperature: 18.0°C (64°F)
Dewpoint: 15.0°C (59°F) [RH = 83%]
Pressure (altimeter): 30.24 inches Hg (1024.0 mb)
Winds: calm
Visibility: 6 or more miles (10+ km)
Ceiling: ceiling and visibility are OK
Clouds: unknown
Weather: no significant weather observed at this time

METAR text: OEKM 172100Z 24006KT CAVOK 19/13 Q1024 NOSIG
Conditions at: OEKM (KHAMIS MUSHAIT A, SA) observed 2100 UTC 17 April 2019
Temperature: 19.0°C (66°F)
Dewpoint: 13.0°C (55°F) [RH = 68%]
Pressure (altimeter): 30.24 inches Hg (1024.0 mb)
Winds: from the WSW (240 degrees) at 7 MPH (6 knots; 3.1 m/s)
Visibility: 6 or more miles (10+ km)
Ceiling: ceiling and visibility are OK
Clouds: unknown
Weather: no significant weather observed at this time

METAR text: OEKM 172000Z 24008KT CAVOK 20/14 Q1025 NOSIG
Conditions at: OEKM (KHAMIS MUSHAIT A, SA) observed 2000 UTC 17 April 2019
Temperature: 20.0°C (68°F)
Dewpoint: 14.0°C (57°F) [RH = 68%]
Pressure (altimeter): 30.27 inches Hg (1025.0 mb)
Winds: from the WSW (240 degrees) at 9 MPH (8 knots; 4.1 m/s)
Visibility: 6 or more miles (10+ km)
Ceiling: ceiling and visibility are OK
Clouds: unknown
Weather: no significant weather observed at this time

METAR text: OEKM 171900Z 21008KT CAVOK 20/14 Q1025 NOSIG
Conditions at: OEKM (KHAMIS MUSHAIT A, SA) observed 1900 UTC 17 April 2019
Temperature: 20.0°C (68°F)
Dewpoint: 14.0°C (57°F) [RH = 68%]
Pressure (altimeter): 30.27 inches Hg (1025.0 mb)
Winds: from the SSW (210 degrees) at 9 MPH (8 knots; 4.1 m/s)
Visibility: 6 or more miles (10+ km)
Ceiling: ceiling and visibility are OK
Clouds: unknown
Weather: no significant weather observed at this time

METAR text: OEKM 171800Z 21005KT CAVOK 20/15 Q1025 NOSIG
Conditions at: OEKM (KHAMIS MUSHAIT A, SA) observed 1800 UTC 17 April 2019
Temperature: 20.0°C (68°F)
Dewpoint: 15.0°C (59°F) [RH = 73%]
Pressure (altimeter): 30.27 inches Hg (1025.0 mb)
Winds: from the SSW (210 degrees) at 6 MPH (5 knots; 2.6 m/s)
Visibility: 6 or more miles (10+ km)
Ceiling: ceiling and visibility are OK
Clouds: unknown
Weather: no significant weather observed at this time

METAR text: OEKM 171700Z 21012KT CAVOK 21/17 Q1024 NOSIG
Conditions at: OEKM (KHAMIS MUSHAIT A, SA) observed 1700 UTC 17 April 2019
Temperature: 21.0°C (70°F)
Dewpoint: 17.0°C (63°F) [RH = 78%]
Pressure (altimeter): 30.24 inches Hg (1024.0 mb)
Winds: from the SSW (210 degrees) at 14 MPH (12 knots; 6.2 m/s)
Visibility: 6 or more miles (10+ km)
Ceiling: ceiling and visibility are OK
Clouds: unknown
Weather: no significant weather observed at this time

METAR text: OEKM 171600Z 24008KT CAVOK 22/15 Q1023 NOSIG
Conditions at: OEKM (KHAMIS MUSHAIT A, SA) observed 1600 UTC 17 April 2019
Temperature: 22.0°C (72°F)
Dewpoint: 15.0°C (59°F) [RH = 65%]
Pressure (altimeter): 30.21 inches Hg (1023.0 mb)
Winds: from the WSW (240 degrees) at 9 MPH (8 knots; 4.1 m/s)
Visibility: 6 or more miles (10+ km)
Ceiling: ceiling and visibility are OK
Clouds: unknown
Weather: no significant weather observed at this time

METAR text: OEKM 171500Z 22012KT 9999 BKN022 FEW025CB 23/12 Q1022 NOSIG
Conditions at: OEKM (KHAMIS MUSHAIT A, SA) observed 1500 UTC 17 April 2019
Temperature: 23.0°C (73°F)
Dewpoint: 12.0°C (54°F) [RH = 50%]
Pressure (altimeter): 30.18 inches Hg (1022.0 mb)
Winds: from the SW (220 degrees) at 14 MPH (12 knots; 6.2 m/s)
Visibility: 6 or more miles (10+ km)
Ceiling: 2200 feet AGL
Clouds: broken clouds at 2200 feet AGL
few clouds at 2500 feet AGL
Weather: no significant weather observed at this time

METAR text: OEKM 171400Z 25015KT 9999 BKN022 FEW025CB 23/16 Q1022 NOSIG
Conditions at: OEKM (KHAMIS MUSHAIT A, SA) observed 1400 UTC 17 April 2019
Temperature: 23.0°C (73°F)
Dewpoint: 16.0°C (61°F) [RH = 65%]
Pressure (altimeter): 30.18 inches Hg (1022.0 mb)
Winds: from the WSW (250 degrees) at 17 MPH (15 knots; 7.7 m/s)
Visibility: 6 or more miles (10+ km)
Ceiling: 2200 feet AGL
Clouds: broken clouds at 2200 feet AGL
few clouds at 2500 feet AGL
Weather: no significant weather observed at this time

METAR text: OEKM 171300Z 22010KT 9999 BKN022 FEW025CB 25/13 Q1022 NOSIG
Conditions at: OEKM (KHAMIS MUSHAIT A, SA) observed 1300 UTC 17 April 2019
Temperature: 25.0°C (77°F)
Dewpoint: 13.0°C (55°F) [RH = 47%]
Pressure (altimeter): 30.18 inches Hg (1022.0 mb)
Winds: from the SW (220 degrees) at 12 MPH (10 knots; 5.1 m/s)
Visibility: 6 or more miles (10+ km)
Ceiling: 2200 feet AGL
Clouds: broken clouds at 2200 feet AGL
few clouds at 2500 feet AGL
Weather: no significant weather observed at this time

METAR text: OEKM 171200Z 23004KT 9999 SCT022 FEW025CB 26/11 Q1022 NOSIG
Conditions at: OEKM (KHAMIS MUSHAIT A, SA) observed 1200 UTC 17 April 2019
Temperature: 26.0°C (79°F)
Dewpoint: 11.0°C (52°F) [RH = 39%]
Pressure (altimeter): 30.18 inches Hg (1022.0 mb)
Winds: from the SW (230 degrees) at 5 MPH (4 knots; 2.1 m/s)
Visibility: 6 or more miles (10+ km)
Ceiling: at least 12,000 feet AGL
Clouds: scattered clouds at 2200 feet AGL
few clouds at 2500 feet AGL
Weather: no significant weather observed at this time

METAR text: OEKM 171100Z 22008KT 9999 SCT022 FEW025CB 27/08 Q1023 NOSIG
Conditions at: OEKM (KHAMIS MUSHAIT A, SA) observed 1100 UTC 17 April 2019
Temperature: 27.0°C (81°F)
Dewpoint: 8.0°C (46°F) [RH = 30%]
Pressure (altimeter): 30.21 inches Hg (1023.0 mb)
Winds: from the SW (220 degrees) at 9 MPH (8 knots; 4.1 m/s)
Visibility: 6 or more miles (10+ km)
Ceiling: at least 12,000 feet AGL
Clouds: scattered clouds at 2200 feet AGL
few clouds at 2500 feet AGL
Weather: no significant weather observed at this time

METAR text: OEKM 171000Z 24016KT 9999 FEW022 27/05 Q1023 NOSIG
Conditions at: OEKM (KHAMIS MUSHAIT A, SA) observed 1000 UTC 17 April 2019
Temperature: 27.0°C (81°F)
Dewpoint: 5.0°C (41°F) [RH = 24%]
Pressure (altimeter): 30.21 inches Hg (1023.0 mb)
Winds: from the WSW (240 degrees) at 18 MPH (16 knots; 8.2 m/s)
Visibility: 6 or more miles (10+ km)
Ceiling: at least 12,000 feet AGL
Clouds: few clouds at 2200 feet AGL
Weather: no significant weather observed at this time

METAR text: OEKM 170900Z 22012KT 9999 FEW022 27/03 Q1024 NOSIG
Conditions at: OEKM (KHAMIS MUSHAIT A, SA) observed 0900 UTC 17 April 2019
Temperature: 27.0°C (81°F)
Dewpoint: 3.0°C (37°F) [RH = 21%]
Pressure (altimeter): 30.24 inches Hg (1024.0 mb)
Winds: from the SW (220 degrees) at 14 MPH (12 knots; 6.2 m/s)
Visibility: 6 or more miles (10+ km)
Ceiling: at least 12,000 feet AGL
Clouds: few clouds at 2200 feet AGL
Weather: no significant weather observed at this time

METAR text: OEKM 170800Z 22010KT 9999 FEW022 26/04 Q1025 NOSIG
Conditions at: OEKM (KHAMIS MUSHAIT A, SA) observed 0800 UTC 17 April 2019
Temperature: 26.0°C (79°F)
Dewpoint: 4.0°C (39°F) [RH = 24%]
Pressure (altimeter): 30.27 inches Hg (1025.0 mb)
Winds: from the SW (220 degrees) at 12 MPH (10 knots; 5.1 m/s)
Visibility: 6 or more miles (10+ km)
Ceiling: at least 12,000 feet AGL
Clouds: few clouds at 2200 feet AGL
Weather: no significant weather observed at this time

METAR text: OEKM 170700Z 23012KT CAVOK 24/05 Q1025 NOSIG
Conditions at: OEKM (KHAMIS MUSHAIT A, SA) observed 0700 UTC 17 April 2019
Temperature: 24.0°C (75°F)
Dewpoint: 5.0°C (41°F) [RH = 29%]
Pressure (altimeter): 30.27 inches Hg (1025.0 mb)
Winds: from the SW (230 degrees) at 14 MPH (12 knots; 6.2 m/s)
Visibility: 6 or more miles (10+ km)
Ceiling: ceiling and visibility are OK
Clouds: unknown
Weather: no significant weather observed at this time

Forecast for: OEKM (KHAMIS MUSHAIT A, SA)
Text: TAF OEKM 181100Z 1812/1918 22010G20KT 9999 SCT020
Forecast period: 1200 to 1700 UTC 18 April 2019
Forecast type: FROM: standard forecast or significant change
Winds: from the SW (220 degrees) at 12 MPH (10 knots; 5.1 m/s)
gusting to 23 MPH (20 knots; 10.3 m/s)
Visibility: 6 or more miles 10+ km)
Ceiling: at least 12,000 feet AGL
Clouds: scattered clouds at 2000 feet AGL
Weather: no significant weather forecast for this period
Text: TEMPO 1812/1818 6000 TSRA BKN020 FEW025CB
Forecast period: 1200 to 1800 UTC 18 April 2019
Forecast type: TEMPORARY: The following changes expected for less than half the time period
Visibility: 4 miles (6 km)
Ceiling: 2000 feet AGL
Clouds: broken clouds at 2000 feet AGL
few clouds at 2500 feet AGL
Weather: TSRA  (rain associated with thunderstorm(s))
Text: BECMG 1817/1819 VRB03KT
Forecast period: 1700 UTC 18 April 2019 to 1800 UTC 19 April 2019
Forecast type: BECOMING: Conditions expected to become as follows by 1900 UTC 18 April 2019
Winds: variable direction winds at 3 MPH (3 knots; 1.5 m/s)
Visibility: 6 or more miles 10+ km)
Ceiling: at least 12,000 feet AGL
Clouds: scattered clouds at 2000 feet AGL
Weather: no significant weather forecast for this period